createdAt,value
2023-04-15T00:02:26.289Z,6.37
2023-04-15T00:05:35.015Z,6.42
2023-04-15T00:08:43.084Z,6.37
2023-04-15T00:11:58.092Z,6.47
2023-04-15T00:15:06.084Z,6.50
2023-04-15T00:18:14.791Z,6.50
2023-04-15T00:21:23.061Z,6.52
2023-04-15T00:24:38.058Z,6.54
2023-04-15T00:27:53.060Z,6.52
2023-04-15T00:31:02.173Z,6.56
2023-04-15T00:34:17.092Z,6.58
2023-04-15T00:37:32.091Z,6.62
2023-04-15T00:40:48.092Z,6.62
2023-04-15T00:43:56.758Z,6.63
2023-04-15T00:47:06.061Z,6.62
2023-04-15T00:50:21.063Z,6.62
2023-04-15T00:53:29.695Z,6.65
2023-04-15T00:56:42.086Z,6.63
2023-04-15T01:00:05.058Z,6.55
2023-04-15T01:03:20.245Z,6.61
2023-04-15T01:06:29.083Z,6.64
2023-04-15T01:09:44.064Z,6.65
2023-04-15T01:12:53.044Z,6.63
2023-04-15T01:16:01.934Z,6.59
2023-04-15T01:19:11.083Z,6.53
2023-04-15T01:22:27.078Z,6.53
2023-04-15T01:25:39.061Z,6.60
2023-04-15T01:28:54.100Z,6.74
2023-04-15T01:31:56.522Z,6.73
2023-04-15T01:35:11.094Z,6.77
2023-04-15T01:38:13.330Z,6.77
2023-04-15T01:41:32.093Z,6.79
2023-04-15T01:44:40.078Z,6.78
2023-04-15T01:47:48.649Z,6.80
2023-04-15T01:51:03.056Z,6.82
2023-04-15T01:54:11.652Z,6.85
2023-04-15T01:57:26.093Z,6.85
2023-04-15T02:00:41.369Z,6.76
2023-04-15T02:03:57.131Z,6.85
2023-04-15T02:07:05.646Z,6.91
2023-04-15T02:10:14.098Z,6.85
2023-04-15T02:13:22.693Z,6.91
2023-04-15T02:16:37.129Z,6.90
2023-04-15T02:19:52.074Z,6.85
2023-04-15T02:23:00.157Z,6.92
2023-04-15T02:26:15.091Z,6.91
2023-04-15T02:29:16.998Z,6.87
2023-04-15T02:32:32.172Z,6.93
2023-04-15T02:35:41.086Z,6.95
2023-04-15T02:38:49.766Z,6.94
2023-04-15T02:41:58.312Z,6.88
2023-04-15T02:45:07.554Z,6.97
2023-04-15T02:48:22.089Z,7.00
2023-04-15T02:51:31.163Z,7.02
2023-04-15T02:54:46.095Z,7.02
2023-04-15T02:57:48.014Z,6.97
2023-04-15T03:01:10.132Z,7.04
2023-04-15T03:04:12.108Z,7.07
2023-04-15T03:07:27.075Z,7.03
2023-04-15T03:10:29.025Z,7.07
2023-04-15T03:13:44.079Z,7.03
2023-04-15T03:16:52.625Z,7.07
2023-04-15T03:20:09.151Z,7.04
2023-04-15T03:23:24.061Z,7.00
2023-04-15T03:26:32.692Z,7.05
2023-04-15T03:29:42.068Z,7.08
2023-04-15T03:32:50.703Z,7.11
2023-04-15T03:36:05.078Z,7.15
2023-04-15T03:39:13.892Z,7.16
2023-04-15T03:42:23.241Z,7.16
2023-04-15T03:45:31.774Z,7.15
2023-04-15T03:48:40.074Z,7.09
2023-04-15T03:51:55.118Z,7.11
2023-04-15T03:54:57.051Z,7.03
2023-04-15T03:58:12.076Z,7.07
2023-04-15T04:01:27.329Z,7.03
2023-04-15T04:04:42.115Z,7.04
2023-04-15T04:07:44.122Z,7.05
2023-04-15T04:10:59.117Z,7.06
2023-04-15T04:14:01.019Z,7.03
2023-04-15T04:17:16.094Z,7.12
2023-04-15T04:20:17.996Z,7.12
2023-04-15T04:23:34.089Z,7.14
2023-04-15T04:26:49.068Z,7.14
2023-04-15T04:30:04.189Z,7.18
2023-04-15T04:33:07.261Z,7.20
2023-04-15T04:36:22.102Z,7.21
2023-04-15T04:39:30.776Z,7.26
2023-04-15T04:42:46.089Z,7.32
2023-04-15T04:45:54.663Z,7.34
2023-04-15T04:49:03.248Z,7.42
2023-04-15T04:52:12.066Z,7.78
2023-04-15T04:55:27.073Z,7.72
2023-04-15T04:58:35.069Z,7.80
2023-04-15T05:01:51.068Z,7.81
2023-04-15T05:04:59.649Z,7.85
2023-04-15T05:08:08.075Z,7.73
2023-04-15T05:11:16.703Z,7.65
2023-04-15T05:14:31.086Z,7.66
2023-04-15T05:17:39.726Z,7.64
2023-04-15T05:20:55.061Z,7.72
2023-04-15T05:24:04.067Z,7.79
2023-04-15T05:27:26.097Z,7.85
2023-04-15T05:30:34.911Z,7.96
2023-04-15T05:33:50.065Z,7.91
2023-04-15T05:36:52.124Z,7.94
2023-04-15T05:40:07.059Z,7.92
2023-04-15T05:43:09.088Z,7.92
2023-04-15T05:46:27.104Z,7.93
2023-04-15T05:49:29.155Z,8.01
2023-04-15T05:52:44.064Z,8.14
2023-04-15T05:55:53.082Z,8.17
2023-04-15T05:59:15.077Z,8.31
2023-04-15T06:02:30.179Z,8.43
2023-04-15T06:05:38.651Z,8.50
2023-04-15T06:08:53.088Z,8.74
2023-04-15T06:12:02.073Z,8.75
2023-04-15T06:15:11.084Z,8.78
2023-04-15T06:18:26.092Z,8.98
2023-04-15T06:21:34.744Z,9.20
2023-04-15T06:24:49.048Z,9.53
2023-04-15T06:27:50.938Z,9.45
2023-04-15T06:31:07.121Z,9.35
2023-04-15T06:34:09.044Z,9.37
2023-04-15T06:37:24.063Z,9.29
2023-04-15T06:40:32.710Z,9.33
2023-04-15T06:43:41.067Z,9.31
2023-04-15T06:46:49.641Z,9.43
2023-04-15T06:49:58.083Z,9.54
2023-04-15T06:53:13.093Z,9.56
2023-04-15T06:56:22.107Z,9.71
2023-04-15T06:59:44.067Z,9.60
2023-04-15T07:02:59.088Z,9.53
2023-04-15T07:06:07.703Z,9.76
2023-04-15T07:09:22.066Z,10.08
2023-04-15T07:12:23.956Z,10.35
2023-04-15T07:15:41.573Z,10.69
2023-04-15T07:18:50.259Z,10.91
2023-04-15T07:21:59.071Z,11.02
2023-04-15T07:25:08.229Z,11.06
2023-04-15T07:28:17.070Z,11.26
2023-04-15T07:31:25.742Z,11.47
2023-04-15T07:34:41.086Z,11.69
2023-04-15T07:37:42.950Z,12.20
2023-04-15T07:40:58.111Z,12.58
2023-04-15T07:44:13.155Z,12.54
2023-04-15T07:47:21.659Z,12.87
2023-04-15T07:50:36.076Z,12.81
2023-04-15T07:53:51.097Z,12.97
2023-04-15T07:57:06.060Z,13.16
2023-04-15T08:00:08.547Z,13.06
2023-04-15T08:03:30.162Z,13.20
2023-04-15T08:06:32.638Z,13.31
2023-04-15T08:09:47.060Z,13.02
2023-04-15T08:12:48.935Z,13.24
2023-04-15T08:16:26.082Z,12.80
2023-04-15T08:19:28.139Z,12.54
2023-04-15T08:22:43.102Z,12.88
2023-04-15T08:25:58.067Z,12.82
2023-04-15T08:29:00.641Z,12.72
2023-04-15T08:32:16.062Z,13.05
2023-04-15T08:35:24.664Z,12.68
2023-04-15T08:38:42.088Z,12.56
2023-04-15T08:42:08.097Z,12.44
2023-04-15T08:45:12.724Z,12.19
2023-04-15T08:48:31.093Z,12.18
2023-04-15T08:51:33.184Z,11.98
2023-04-15T08:54:49.093Z,12.47
2023-04-15T08:57:57.686Z,12.47
2023-04-15T09:01:06.067Z,12.23
2023-04-15T09:04:21.091Z,12.25
2023-04-15T09:07:22.980Z,13.07
2023-04-15T09:10:39.098Z,13.56
2023-04-15T09:13:47.851Z,13.10
2023-04-15T09:17:10.100Z,13.08
2023-04-15T09:20:18.834Z,13.29
2023-04-15T09:23:27.097Z,13.21
2023-04-15T09:26:38.025Z,13.27
2023-04-15T09:29:57.144Z,13.39
2023-04-15T09:33:04.358Z,13.78
2023-04-15T09:36:19.098Z,13.60
2023-04-15T09:39:21.040Z,13.26
2023-04-15T09:42:36.083Z,13.54
2023-04-15T09:45:52.740Z,13.50
2023-04-15T09:49:18.135Z,13.13
2023-04-15T09:52:27.016Z,12.95
2023-04-15T09:55:42.088Z,12.85
2023-04-15T09:58:51.119Z,13.07
2023-04-15T10:02:13.167Z,13.30
2023-04-15T10:05:22.095Z,13.11
2023-04-15T10:08:40.077Z,13.15
2023-04-15T10:11:57.095Z,13.30
2023-04-15T10:15:03.193Z,13.27
2023-04-15T10:18:22.112Z,13.09
2023-04-15T10:21:31.093Z,12.73
2023-04-15T10:24:40.764Z,12.28
2023-04-15T10:27:57.080Z,12.37
2023-04-15T10:31:06.086Z,12.97
2023-04-15T10:34:15.832Z,13.07
2023-04-15T10:37:45.095Z,12.87
2023-04-15T10:40:54.089Z,12.81
2023-04-15T10:44:05.037Z,13.33
2023-04-15T10:47:26.125Z,13.46
2023-04-15T10:50:31.893Z,13.31
2023-04-15T10:53:52.135Z,13.14
2023-04-15T10:57:00.609Z,12.92
2023-04-15T11:00:20.075Z,12.74
2023-04-15T11:03:45.245Z,12.39
2023-04-15T11:07:12.087Z,12.10
2023-04-15T11:10:27.112Z,11.87
2023-04-15T11:13:36.080Z,11.92
2023-04-15T11:16:44.991Z,12.20
2023-04-15T11:20:01.110Z,12.21
2023-04-15T11:23:14.591Z,12.32
2023-04-15T11:26:33.103Z,12.35
2023-04-15T11:29:41.828Z,12.30
2023-04-15T11:33:02.211Z,12.47
2023-04-15T11:36:04.518Z,12.73
2023-04-15T11:39:19.110Z,12.73
2023-04-15T11:42:36.216Z,12.65
2023-04-15T11:46:06.112Z,12.72
2023-04-15T11:49:36.097Z,13.01
2023-04-15T11:52:45.115Z,12.89
2023-04-15T11:55:54.114Z,12.57
2023-04-15T11:59:10.084Z,12.70
2023-04-15T12:02:25.304Z,12.64
2023-04-15T12:05:33.695Z,12.96
2023-04-15T12:08:55.110Z,13.08
2023-04-15T12:12:10.096Z,13.08
2023-04-15T12:15:49.640Z,13.05
2023-04-15T12:19:06.082Z,12.89
2023-04-15T12:22:23.090Z,13.02
2023-04-15T12:25:35.571Z,13.59
2023-04-15T12:28:47.103Z,13.84
2023-04-15T12:32:05.136Z,13.71
2023-04-15T12:35:14.105Z,13.45
2023-04-15T12:38:29.120Z,13.24
2023-04-15T12:41:37.711Z,13.23
2023-04-15T12:44:53.126Z,13.14
2023-04-15T12:48:01.751Z,12.68
2023-04-15T12:51:16.098Z,12.67
2023-04-15T12:54:18.768Z,12.79
2023-04-15T12:57:33.090Z,12.90
2023-04-15T13:00:55.261Z,13.06
2023-04-15T13:04:22.627Z,13.14
2023-04-15T13:07:30.684Z,13.23
2023-04-15T13:10:39.113Z,13.17
2023-04-15T13:13:48.147Z,13.08
2023-04-15T13:16:56.093Z,12.69
2023-04-15T13:20:14.647Z,12.70
2023-04-15T13:23:22.784Z,12.42
2023-04-15T13:26:34.169Z,12.51
2023-04-15T13:29:43.125Z,12.55
2023-04-15T13:32:58.139Z,12.95
2023-04-15T13:36:09.441Z,13.02
2023-04-15T13:39:18.254Z,12.96
2023-04-15T13:42:26.878Z,12.72
2023-04-15T13:45:36.224Z,12.68
2023-04-15T13:48:44.810Z,12.57
2023-04-15T13:51:54.103Z,12.35
2023-04-15T13:55:06.247Z,12.42
2023-04-15T13:58:33.124Z,12.38
2023-04-15T14:01:55.217Z,12.07
2023-04-15T14:05:10.163Z,12.61
2023-04-15T14:08:18.703Z,12.73
2023-04-15T14:11:27.381Z,12.87
2023-04-15T14:14:36.114Z,12.89
2023-04-15T14:17:51.167Z,12.66
2023-04-15T14:20:53.274Z,12.55
2023-04-15T14:24:08.168Z,12.27
2023-04-15T14:27:23.090Z,12.26
2023-04-15T14:30:41.370Z,12.25
2023-04-15T14:33:56.122Z,12.30
2023-04-15T14:36:58.304Z,12.39
2023-04-15T14:40:14.287Z,12.48
2023-04-15T14:43:16.494Z,12.49
2023-04-15T14:46:32.108Z,12.53
2023-04-15T14:49:34.515Z,12.53
2023-04-15T14:52:50.141Z,12.55
2023-04-15T14:56:05.108Z,12.46
2023-04-15T14:59:20.784Z,12.59
2023-04-15T15:02:38.491Z,12.72
2023-04-15T15:05:54.348Z,12.75
2023-04-15T15:09:09.459Z,12.83
2023-04-15T15:12:24.112Z,12.64
2023-04-15T15:15:33.631Z,12.60
2023-04-15T15:18:49.101Z,12.70
2023-04-15T15:22:04.111Z,12.50
2023-04-15T15:25:13.111Z,12.36
2023-04-15T15:28:28.377Z,12.29
2023-04-15T15:31:37.312Z,12.13
2023-04-15T15:34:52.231Z,11.94
2023-04-15T15:38:00.827Z,11.92
2023-04-15T15:41:16.131Z,11.82
2023-04-15T15:44:24.937Z,11.75
2023-04-15T15:47:33.441Z,11.75
2023-04-15T15:50:42.083Z,11.79
2023-04-15T15:53:50.138Z,11.84
2023-04-15T15:56:58.839Z,11.95
2023-04-15T16:00:15.121Z,11.92
2023-04-15T16:03:24.119Z,11.85
2023-04-15T16:06:39.103Z,11.80
2023-04-15T16:09:41.466Z,11.73
2023-04-15T16:13:00.122Z,11.68
2023-04-15T16:16:08.178Z,11.59
2023-04-15T16:19:16.949Z,11.56
2023-04-15T16:22:33.140Z,11.54
2023-04-15T16:25:43.362Z,11.39
2023-04-15T16:28:52.396Z,11.54
2023-04-15T16:32:07.118Z,11.54
2023-04-15T16:35:15.693Z,11.53
2023-04-15T16:38:24.148Z,11.60
2023-04-15T16:41:34.450Z,11.60
2023-04-15T16:44:49.118Z,11.51
2023-04-15T16:47:57.714Z,11.30
2023-04-15T16:51:06.434Z,11.22
2023-04-15T16:54:15.144Z,11.18
2023-04-15T16:57:53.170Z,11.19
2023-04-15T17:00:52.540Z,11.14
2023-04-15T17:04:14.320Z,11.08
2023-04-15T17:07:30.526Z,11.05
2023-04-15T17:10:32.548Z,11.05
2023-04-15T17:13:48.103Z,11.02
2023-04-15T17:16:56.093Z,10.92
2023-04-15T17:20:12.114Z,10.90
2023-04-15T17:23:27.369Z,10.88
2023-04-15T17:26:36.100Z,10.75
2023-04-15T17:29:51.129Z,10.67
2023-04-15T17:32:59.525Z,10.65
2023-04-15T17:36:07.863Z,10.66
2023-04-15T17:39:24.560Z,10.59
2023-04-15T17:42:27.011Z,10.54
2023-04-15T17:45:42.606Z,10.53
2023-04-15T17:48:51.309Z,10.48
2023-04-15T17:52:07.298Z,10.42
2023-04-15T17:55:22.456Z,10.43
2023-04-15T17:58:27.106Z,10.40
2023-04-15T18:01:42.351Z,10.34
2023-04-15T18:05:05.641Z,10.26
2023-04-15T18:08:23.126Z,10.24
2023-04-15T18:11:33.298Z,10.08
2023-04-15T18:14:43.404Z,10.12
2023-04-15T18:17:52.340Z,10.09
2023-04-15T18:21:08.499Z,9.99
2023-04-15T18:24:11.143Z,10.03
2023-04-15T18:27:27.496Z,9.98
2023-04-15T18:30:42.556Z,9.86
2023-04-15T18:33:50.812Z,9.95
2023-04-15T18:37:07.431Z,9.97
2023-04-15T18:40:16.308Z,9.90
2023-04-15T18:43:31.612Z,9.84
2023-04-15T18:46:39.867Z,9.83
2023-04-15T18:49:48.535Z,9.78
2023-04-15T18:53:04.498Z,9.62
2023-04-15T18:56:20.540Z,9.69
2023-04-15T18:59:30.467Z,9.66
2023-04-15T19:02:45.730Z,9.61
2023-04-15T19:06:08.090Z,9.46
2023-04-15T19:09:25.080Z,9.49
2023-04-15T19:12:40.487Z,9.33
2023-04-15T19:15:49.529Z,9.38
2023-04-15T19:18:58.384Z,9.36
2023-04-15T19:22:07.103Z,9.32
2023-04-15T19:25:22.555Z,9.26
2023-04-15T19:28:39.028Z,9.31
2023-04-15T19:31:48.562Z,9.25
2023-04-15T19:34:57.457Z,9.22
2023-04-15T19:38:12.102Z,9.17
2023-04-15T19:41:21.637Z,9.16
2023-04-15T19:44:30.124Z,9.16
2023-04-15T19:47:46.549Z,9.20
2023-04-15T19:50:56.723Z,9.25
2023-04-15T19:54:12.577Z,9.24
2023-04-15T19:57:15.200Z,9.24
2023-04-15T20:00:30.230Z,9.22
2023-04-15T20:03:52.219Z,9.28
2023-04-15T20:07:01.524Z,9.24
2023-04-15T20:10:16.594Z,9.31
2023-04-15T20:13:24.996Z,9.24
2023-04-15T20:16:34.499Z,9.25
2023-04-15T20:19:43.284Z,9.27
2023-04-15T20:22:58.601Z,9.20
2023-04-15T20:26:07.469Z,9.27
2023-04-15T20:29:16.103Z,9.25
2023-04-15T20:32:27.790Z,9.28
2023-04-15T20:35:43.596Z,9.27
2023-04-15T20:38:46.122Z,9.29
2023-04-15T20:42:01.663Z,9.33
2023-04-15T20:45:14.420Z,9.34
2023-04-15T20:48:31.137Z,9.36
2023-04-15T20:51:33.531Z,9.38
2023-04-15T20:54:51.104Z,9.35
2023-04-15T20:57:59.710Z,9.36
2023-04-15T21:01:08.140Z,9.27
2023-04-15T21:04:23.437Z,9.27
2023-04-15T21:07:38.131Z,9.22
2023-04-15T21:10:40.124Z,9.21
2023-04-15T21:13:55.457Z,9.21
2023-04-15T21:16:57.521Z,9.14
2023-04-15T21:20:13.112Z,9.10
2023-04-15T21:23:21.709Z,9.02
2023-04-15T21:26:36.277Z,9.02
2023-04-15T21:29:51.111Z,8.98
2023-04-15T21:33:06.189Z,8.85
2023-04-15T21:36:14.720Z,8.90
2023-04-15T21:39:23.135Z,8.91
2023-04-15T21:42:38.115Z,8.91
2023-04-15T21:45:40.027Z,8.86
2023-04-15T21:48:55.102Z,8.82
2023-04-15T21:52:04.442Z,8.77
2023-04-15T21:55:14.117Z,8.77
2023-04-15T21:58:22.797Z,8.69
2023-04-15T22:01:32.427Z,8.74
2023-04-15T22:04:54.145Z,8.73
2023-04-15T22:08:09.100Z,8.73
2023-04-15T22:11:28.756Z,8.74
2023-04-15T22:14:37.807Z,8.74
2023-04-15T22:17:53.135Z,8.72
2023-04-15T22:20:55.158Z,8.73
2023-04-15T22:24:32.559Z,8.69
2023-04-15T22:27:45.105Z,8.74
2023-04-15T22:30:46.942Z,8.76
2023-04-15T22:34:02.119Z,8.76
2023-04-15T22:37:10.100Z,8.80
2023-04-15T22:40:19.102Z,8.79
2023-04-15T22:43:35.165Z,8.73
2023-04-15T22:46:37.254Z,8.70
2023-04-15T22:49:52.115Z,8.69
2023-04-15T22:52:54.088Z,8.66
2023-04-15T22:56:09.124Z,8.62
2023-04-15T22:59:24.169Z,8.64
2023-04-15T23:02:26.120Z,8.81
2023-04-15T23:05:48.138Z,8.89
2023-04-15T23:08:56.907Z,8.88
2023-04-15T23:12:05.140Z,8.87
2023-04-15T23:15:13.937Z,8.85
2023-04-15T23:18:22.121Z,8.88
2023-04-15T23:21:37.149Z,8.87
2023-04-15T23:24:52.114Z,8.88
2023-04-15T23:28:00.765Z,8.86
2023-04-15T23:31:15.124Z,8.87
2023-04-15T23:34:24.149Z,8.82
2023-04-15T23:37:39.114Z,8.79
2023-04-15T23:40:54.110Z,8.79
2023-04-15T23:44:09.098Z,8.76
2023-04-15T23:47:24.135Z,8.74
2023-04-15T23:50:32.893Z,8.69
2023-04-15T23:53:41.118Z,8.72
2023-04-15T23:56:56.145Z,8.63
2023-04-15T23:59:58.194Z,8.62
